Time;durP1;ratioP1;P1;durP2;ratioP2;P2;SDS_P1;SDS_P2;PMS_P1;PMS_P2;Temp;Humidity;BMP_temperature;BMP_pressure;BME280_temperature;BME280_humidity;BME280_pressure;Samples;Min_cycle;Max_cycle;Signal;HPM_P1;HPM_P2
2022/05/04 03:00:36;;;;;;;11.63;10.63;;;11.90;99.90;;;;;;5844289;23;20302;-79
2022/05/04 03:03:02;;;;;;;12.23;10.90;;;11.90;99.90;;;;;;4990538;28;20204;-77
2022/05/04 03:05:28;;;;;;;12.33;11.13;;;11.90;99.90;;;;;;4979011;28;20173;-79
2022/05/04 03:07:54;;;;;;;12.57;11.47;;;11.90;99.90;;;;;;4977304;28;20220;-78
2022/05/04 03:10:20;;;;;;;11.80;10.80;;;11.80;99.90;;;;;;4987108;28;20219;-79
2022/05/04 03:12:45;;;;;;;15.00;13.70;;;11.80;99.90;;;;;;4993266;28;20177;-78
2022/05/04 03:15:11;;;;;;;12.17;10.97;;;11.80;99.90;;;;;;4999979;23;20225;-74
2022/05/04 03:17:37;;;;;;;13.37;11.63;;;11.80;99.90;;;;;;4993951;28;20215;-75
2022/05/04 03:20:04;;;;;;;13.80;12.53;;;11.80;99.90;;;;;;4987984;28;20184;-74
2022/05/04 03:22:32;;;;;;;28.67;26.73;;;11.70;99.90;;;;;;4975033;28;20570;-74
2022/05/04 03:24:58;;;;;;;26.60;24.50;;;11.70;99.90;;;;;;4974998;28;20188;-74
2022/05/04 03:27:24;;;;;;;28.33;26.53;;;11.70;99.90;;;;;;4974518;28;20224;-75
2022/05/04 03:29:50;;;;;;;27.30;25.33;;;11.70;99.90;;;;;;4974012;28;20192;-75
2022/05/04 03:32:16;;;;;;;24.47;22.47;;;11.80;99.90;;;;;;4978738;28;20818;-74
2022/05/04 03:34:41;;;;;;;29.07;27.07;;;11.70;99.90;;;;;;4975164;28;20185;-71
2022/05/04 03:37:07;;;;;;;27.60;25.60;;;11.70;99.90;;;;;;4973567;28;20191;-72
2022/05/04 03:39:33;;;;;;;32.93;30.80;;;11.70;99.90;;;;;;4972030;28;20212;-72
2022/05/04 03:41:59;;;;;;;35.17;32.87;;;11.80;99.90;;;;;;4973377;28;20199;-72
2022/05/04 03:44:25;;;;;;;34.13;32.00;;;11.70;99.90;;;;;;4973844;28;20181;-72
2022/05/04 03:46:52;;;;;;;31.33;29.17;;;11.70;99.90;;;;;;4973520;28;20708;-73
2022/05/04 03:49:22;;;;;;;30.53;28.63;;;11.70;99.90;;;;;;4973937;28;20185;-73
2022/05/04 03:51:48;;;;;;;31.40;29.40;;;11.70;99.90;;;;;;4973975;28;20189;-72
2022/05/04 03:54:14;;;;;;;37.03;34.57;;;11.60;99.90;;;;;;4975818;28;20279;-72
2022/05/04 03:56:41;;;;;;;31.37;28.87;;;11.60;99.90;;;;;;4976174;28;20216;-73
2022/05/04 03:59:07;;;;;;;26.63;24.77;;;11.70;99.90;;;;;;4985952;28;20244;-72
2022/05/04 04:01:33;;;;;;;30.57;28.23;;;11.70;99.90;;;;;;5006446;28;20188;-71
2022/05/04 04:03:59;;;;;;;36.20;33.90;;;11.70;99.90;;;;;;4996207;28;20184;-71
2022/05/04 04:06:26;;;;;;;37.57;35.30;;;11.70;99.90;;;;;;4995217;28;20299;-71
2022/05/04 04:08:52;;;;;;;35.53;33.27;;;11.70;99.90;;;;;;4994806;28;20601;-72
2022/05/04 04:11:19;;;;;;;37.70;35.27;;;11.70;99.90;;;;;;4993761;28;20177;-71
2022/05/04 04:13:45;;;;;;;34.23;32.00;;;11.70;99.90;;;;;;4993426;28;20176;-72
2022/05/04 04:16:10;;;;;;;33.67;31.23;;;11.70;99.90;;;;;;4993294;28;20228;-71
2022/05/04 04:18:36;;;;;;;48.60;44.90;;;11.70;99.90;;;;;;4993225;28;20198;-71
2022/05/04 04:23:47;;;;;;;56.67;53.27;;;11.70;99.90;;;;;;4992831;28;20186;-71
2022/05/04 04:26:13;;;;;;;49.00;46.10;;;11.80;99.90;;;;;;4993261;28;20565;-71
2022/05/04 04:28:39;;;;;;;42.27;39.33;;;11.70;99.90;;;;;;4993097;28;20195;-71
2022/05/04 04:31:06;;;;;;;40.47;37.60;;;11.70;99.90;;;;;;4992850;28;20173;-71
2022/05/04 04:33:32;;;;;;;39.63;36.90;;;11.70;99.90;;;;;;4992066;28;20215;-73
2022/05/04 04:35:59;;;;;;;29.37;27.27;;;11.70;99.90;;;;;;4993230;28;20232;-72
2022/05/04 04:38:29;;;;;;;29.57;27.30;;;11.80;99.90;;;;;;4992979;28;20533;-73
2022/05/04 04:40:55;;;;;;;31.13;29.20;;;11.70;99.90;;;;;;4991942;28;20192;-72
2022/05/04 04:43:21;;;;;;;36.70;34.37;;;11.80;99.90;;;;;;4993113;28;20180;-72
2022/05/04 04:45:49;;;;;;;25.63;23.93;;;11.80;99.90;;;;;;4992750;28;20230;-72
2022/05/04 04:48:16;;;;;;;18.73;17.47;;;11.90;99.90;;;;;;4992593;28;20238;-73
2022/05/04 04:50:45;;;;;;;22.87;21.03;;;11.90;99.90;;;;;;4992399;28;20180;-73
2022/05/04 04:53:13;;;;;;;28.47;26.37;;;11.90;99.90;;;;;;4992626;28;20202;-72
2022/05/04 04:55:43;;;;;;;13.63;12.43;;;12.00;99.90;;;;;;4992705;28;20200;-72
2022/05/04 04:58:09;;;;;;;12.03;10.93;;;12.10;99.90;;;;;;4992577;28;20287;-72
2022/05/04 05:00:35;;;;;;;12.80;11.67;;;12.10;99.90;;;;;;4992452;28;20263;-72
2022/05/04 05:03:02;;;;;;;32.17;27.93;;;12.20;99.90;;;;;;4993725;28;20204;-72
2022/05/04 05:05:27;;;;;;;17.83;15.60;;;12.20;99.90;;;;;;4993659;28;20738;-72
2022/05/04 05:07:53;;;;;;;19.47;17.47;;;12.30;99.90;;;;;;4992111;28;20208;-73
2022/05/04 05:10:19;;;;;;;13.47;11.60;;;12.40;99.90;;;;;;4992415;28;20172;-72
2022/05/04 05:12:45;;;;;;;14.50;13.37;;;12.50;99.90;;;;;;4991564;28;20659;-73
2022/05/04 05:17:56;;;;;;;33.70;31.47;;;12.60;99.90;;;;;;4992063;28;20191;-72
2022/05/04 05:20:21;;;;;;;33.30;31.30;;;12.80;99.90;;;;;;4991079;28;20564;-72
2022/05/04 05:22:47;;;;;;;32.17;30.00;;;12.90;99.90;;;;;;4991081;28;20192;-73
2022/05/04 05:25:13;;;;;;;27.23;25.33;;;13.00;99.90;;;;;;4992202;28;20207;-72
2022/05/04 05:27:39;;;;;;;28.13;26.03;;;13.10;99.90;;;;;;4991585;28;20224;-73
2022/05/04 05:30:05;;;;;;;30.07;28.07;;;13.10;99.90;;;;;;5006442;28;20187;-73
2022/05/04 05:32:31;;;;;;;32.97;30.70;;;13.30;99.90;;;;;;4993026;28;20221;-72
2022/05/04 05:34:57;;;;;;;42.07;39.30;;;13.40;99.90;;;;;;4990910;28;20706;-73
2022/05/04 05:37:22;;;;;;;44.83;42.03;;;13.50;99.90;;;;;;4990436;28;20193;-73
2022/05/04 05:39:48;;;;;;;36.87;34.37;;;13.50;99.90;;;;;;4992086;28;20183;-73
2022/05/04 05:42:14;;;;;;;25.10;23.40;;;13.60;99.90;;;;;;4992023;28;20652;-73
2022/05/04 05:44:41;;;;;;;19.03;17.33;;;13.70;99.90;;;;;;4991634;28;20195;-72
2022/05/04 05:47:07;;;;;;;19.80;18.20;;;13.80;99.90;;;;;;4990638;28;20275;-72
2022/05/04 05:49:32;;;;;;;19.03;17.63;;;13.80;99.90;;;;;;4991776;28;20219;-72
2022/05/04 05:51:58;;;;;;;17.63;16.30;;;13.80;99.90;;;;;;4991685;28;20607;-73
2022/05/04 05:54:24;;;;;;;34.40;32.23;;;13.80;99.90;;;;;;4991980;28;20230;-73
2022/05/04 05:56:51;;;;;;;58.90;55.37;;;13.90;99.90;;;;;;4991517;28;20219;-73
2022/05/04 05:59:16;;;;;;;62.33;58.67;;;14.00;99.90;;;;;;4991456;28;20602;-73
2022/05/04 06:01:42;;;;;;;70.57;66.57;;;14.00;99.90;;;;;;4991840;28;20266;-73
2022/05/04 06:04:10;;;;;;;70.60;66.60;;;14.00;99.90;;;;;;4991690;28;20180;-73
2022/05/04 06:06:36;;;;;;;69.80;65.77;;;14.00;99.90;;;;;;4991650;28;20221;-73
2022/05/04 06:09:02;;;;;;;58.33;55.03;;;14.20;99.90;;;;;;4999450;28;20165;-73
2022/05/04 06:11:31;;;;;;;41.07;38.60;;;14.20;99.90;;;;;;4990543;28;20188;-73
2022/05/04 06:13:56;;;;;;;24.97;23.23;;;14.30;99.90;;;;;;4991436;28;20183;-73
2022/05/04 06:16:22;;;;;;;41.40;38.73;;;14.40;99.90;;;;;;4991433;28;20216;-73
2022/05/04 06:18:48;;;;;;;38.17;35.90;;;14.50;99.90;;;;;;4991143;28;20263;-73
2022/05/04 06:21:15;;;;;;;15.83;14.63;;;14.60;99.90;;;;;;4991635;28;20766;-73
2022/05/04 06:23:41;;;;;;;13.87;12.73;;;14.80;99.90;;;;;;4991246;28;20235;-73
2022/05/04 06:26:06;;;;;;;18.73;17.23;;;15.00;99.90;;;;;;4991186;28;20219;-73
2022/05/04 06:28:32;;;;;;;13.07;11.83;;;15.20;99.90;;;;;;4990694;28;20586;-72
2022/05/04 06:36:26;;;;;;;9.87;8.97;;;15.30;99.90;;;;;;5003991;28;20204;-74
2022/05/04 06:38:52;;;;;;;10.53;9.43;;;15.20;99.90;;;;;;5007954;28;20179;-73
2022/05/04 06:41:18;;;;;;;18.73;10.63;;;15.20;99.90;;;;;;5000035;28;20266;-73
2022/05/04 06:43:45;;;;;;;15.40;14.30;;;15.10;99.90;;;;;;4989820;28;20192;-73
2022/05/04 06:46:11;;;;;;;14.00;12.77;;;15.10;99.90;;;;;;4991281;28;20274;-74
2022/05/04 06:48:37;;;;;;;11.03;10.13;;;15.10;99.90;;;;;;4990978;28;20267;-73
2022/05/04 06:51:03;;;;;;;10.40;9.23;;;15.20;99.90;;;;;;4991074;28;20408;-74
2022/05/04 06:53:29;;;;;;;10.00;8.90;;;15.20;99.90;;;;;;4990022;28;20184;-74
2022/05/04 06:55:55;;;;;;;9.93;9.13;;;15.10;99.90;;;;;;4989966;28;20212;-73
2022/05/04 06:58:20;;;;;;;9.87;8.93;;;15.30;99.90;;;;;;4988707;28;20895;-74
2022/05/04 07:00:46;;;;;;;10.57;9.53;;;15.50;99.90;;;;;;4990010;28;20176;-74
2022/05/04 07:03:12;;;;;;;10.50;9.70;;;15.40;99.90;;;;;;4990400;28;20653;-72
2022/05/04 07:05:37;;;;;;;10.23;9.23;;;15.50;99.90;;;;;;4990086;28;20200;-74
2022/05/04 07:08:03;;;;;;;14.77;12.00;;;15.60;99.90;;;;;;4990609;28;20215;-75
2022/05/04 07:10:29;;;;;;;10.60;9.60;;;15.60;99.90;;;;;;4991564;28;20204;-74
2022/05/04 07:12:55;;;;;;;14.60;13.10;;;15.40;99.90;;;;;;4985865;28;20655;-73
2022/05/04 07:15:21;;;;;;;42.27;39.60;;;15.10;99.90;;;;;;5002275;28;20730;-74
2022/05/04 07:17:47;;;;;;;32.87;30.63;;;14.80;99.90;;;;;;5010193;28;20215;-73
2022/05/04 07:20:12;;;;;;;22.57;21.10;;;14.50;99.90;;;;;;5009635;28;20188;-74
2022/05/04 07:22:38;;;;;;;37.30;35.03;;;14.30;99.90;;;;;;5009354;28;20207;-74
2022/05/04 07:25:05;;;;;;;45.87;43.23;;;14.20;99.90;;;;;;5010688;28;20214;-75
2022/05/04 07:27:30;;;;;;;50.40;46.77;;;14.20;99.90;;;;;;5013866;28;20222;-75
2022/05/04 07:29:56;;;;;;;52.97;49.20;;;14.20;99.90;;;;;;5014961;28;20172;-74
2022/05/04 07:32:22;;;;;;;37.83;35.27;;;14.10;99.90;;;;;;5011367;28;20550;-74
2022/05/04 07:34:48;;;;;;;31.10;29.10;;;14.00;99.90;;;;;;5012321;28;20183;-74
2022/05/04 07:37:14;;;;;;;55.07;51.90;;;14.10;99.90;;;;;;5013496;28;20526;-74
2022/05/04 07:42:24;;;;;;;55.90;52.50;;;14.00;99.90;;;;;;5028240;28;20195;-74
2022/05/04 07:44:57;;;;;;;36.60;34.17;;;14.00;99.90;;;;;;5020301;28;20183;-74
2022/05/04 07:47:25;;;;;;;51.57;48.43;;;14.00;99.90;;;;;;5014248;28;20572;-74
2022/05/04 07:49:51;;;;;;;63.00;59.20;;;14.10;99.90;;;;;;5014328;28;20274;-75
2022/05/04 07:52:17;;;;;;;76.27;71.93;;;14.10;99.90;;;;;;5029630;28;20179;-74
2022/05/04 07:54:42;;;;;;;77.53;73.13;;;14.20;99.90;;;;;;5023661;28;20180;-74
2022/05/04 07:57:08;;;;;;;76.77;72.57;;;14.30;99.90;;;;;;5014045;28;20191;-74
2022/05/04 07:59:34;;;;;;;64.00;60.10;;;14.40;99.90;;;;;;5014143;28;20183;-74
2022/05/04 08:04:45;;;;;;;34.13;31.23;;;14.60;99.90;;;;;;5014112;28;20206;-74
2022/05/04 08:07:11;;;;;;;32.57;30.20;;;15.00;99.90;;;;;;5013798;28;20207;-74
2022/05/04 08:09:36;;;;;;;15.63;14.17;;;15.40;99.90;;;;;;5014112;28;20180;-74
2022/05/04 08:12:06;;;;;;;65.90;61.90;;;16.00;99.90;;;;;;5012676;28;20171;-75
2022/05/04 08:14:32;;;;;;;87.30;82.43;;;16.50;99.90;;;;;;5012681;28;20188;-74
2022/05/04 08:16:58;;;;;;;46.07;43.07;;;16.80;99.90;;;;;;5012203;28;20225;-73
2022/05/04 08:19:24;;;;;;;52.67;49.53;;;17.10;99.90;;;;;;5018449;28;20286;-73
2022/05/04 08:21:50;;;;;;;68.80;64.60;;;17.30;99.90;;;;;;5014164;28;20652;-75
2022/05/04 08:24:15;;;;;;;91.73;86.70;;;17.80;99.90;;;;;;5013821;28;20184;-75
2022/05/04 08:26:42;;;;;;;69.97;66.10;;;18.60;99.90;;;;;;5012464;28;20207;-75
2022/05/04 08:29:08;;;;;;;31.20;29.27;;;19.00;99.90;;;;;;5013304;28;20187;-75
2022/05/04 08:31:33;;;;;;;12.37;9.83;;;19.40;99.90;;;;;;5013185;28;20554;-75
2022/05/04 08:33:59;;;;;;;16.10;15.03;;;19.70;99.90;;;;;;5013372;28;20266;-75
2022/05/04 08:36:26;;;;;;;15.40;14.20;;;19.80;99.90;;;;;;5013127;28;20282;-75
2022/05/04 08:38:52;;;;;;;16.90;15.90;;;20.00;99.90;;;;;;5012982;28;20190;-76
2022/05/04 08:41:18;;;;;;;19.35;18.15;;;20.00;99.90;;;;;;5013080;28;20679;-75
2022/05/04 08:43:47;;;;;;;40.17;37.97;;;20.70;99.90;;;;;;5012991;28;20219;-73
2022/05/04 08:46:17;;;;;;;23.67;22.20;;;21.10;99.90;;;;;;5012944;28;20561;-75
2022/05/04 08:48:44;;;;;;;10.13;9.30;;;21.60;99.90;;;;;;5012797;28;20184;-75
2022/05/04 08:51:10;;;;;;;33.95;32.13;;;21.80;99.90;;;;;;5012992;28;20184;-75
2022/05/04 08:53:38;;;;;;;10.63;9.73;;;22.10;99.90;;;;;;5007151;28;20180;-75
2022/05/04 08:56:05;;;;;;;12.73;11.57;;;22.50;99.90;;;;;;4987801;28;20211;-75
2022/05/04 08:58:35;;;;;;;26.20;24.63;;;22.90;99.90;;;;;;4992593;28;20188;-75
2022/05/04 09:01:02;;;;;;;23.95;22.52;;;23.50;99.90;;;;;;4993187;28;20267;-75
2022/05/04 09:03:29;;;;;;;11.20;10.50;;;24.10;99.90;;;;;;4992547;28;20180;-74
2022/05/04 09:05:54;;;;;;;15.10;14.20;;;24.00;99.90;;;;;;4992503;28;20200;-74
2022/05/04 09:08:22;;;;;;;12.00;11.30;;;23.90;99.90;;;;;;4998040;28;20176;-75
2022/05/04 09:10:47;;;;;;;11.80;11.00;;;23.40;99.90;;;;;;5012927;28;20255;-75
2022/05/04 09:13:17;;;;;;;13.50;12.52;;;22.70;99.90;;;;;;4992165;28;20235;-75
2022/05/04 09:15:43;;;;;;;8.90;8.20;;;22.30;99.90;;;;;;4999536;23;20232;-77
2022/05/04 09:18:16;;;;;;;7.03;6.53;;;22.00;99.90;;;;;;4973946;28;20195;-79
2022/05/04 09:20:49;;;;;;;7.32;6.72;;;22.00;99.90;;;;;;4961909;28;20185;-79
2022/05/04 09:23:20;;;;;;;7.35;6.95;;;22.40;99.90;;;;;;4974824;28;20676;-78
2022/05/04 09:25:56;;;;;;;7.88;7.25;;;22.60;99.90;;;;;;4975935;28;20232;-79
2022/05/04 09:28:26;;;;;;;8.38;7.78;;;22.30;99.90;;;;;;4975463;28;20203;-78
2022/05/04 09:30:54;;;;;;;8.48;7.78;;;22.10;99.90;;;;;;4974993;28;20189;-78
2022/05/04 09:33:28;;;;;;;7.88;7.25;;;22.20;99.90;;;;;;4976156;28;20288;-78
2022/05/04 09:35:55;;;;;;;8.90;8.38;;;22.30;99.90;;;;;;4977888;28;20220;-78
2022/05/04 09:46:47;;;;;;;8.32;7.68;;;22.90;99.90;;;;;;4975364;28;20217;-78
2022/05/04 09:49:16;;;;;;;6.85;6.35;;;23.60;99.90;;;;;;4974144;28;20553;-77
2022/05/04 09:51:51;;;;;;;13.40;12.43;;;24.20;99.90;;;;;;4975422;28;20189;-78
2022/05/04 09:54:24;;;;;;;14.23;13.10;;;23.30;99.90;;;;;;4975184;28;20192;-78
2022/05/04 09:56:54;;;;;;;8.43;7.68;;;22.20;99.90;;;;;;4973944;28;20213;-79
2022/05/04 09:59:25;;;;;;;5.28;4.97;;;21.80;99.90;;;;;;4973292;28;20185;-78
2022/05/04 10:01:52;;;;;;;4.82;4.63;;;21.60;99.90;;;;;;4973401;28;20556;-77
2022/05/04 10:04:20;;;;;;;7.32;6.82;;;21.90;99.90;;;;;;4974516;28;20188;-79
2022/05/04 10:06:48;;;;;;;12.50;11.50;;;22.40;99.90;;;;;;4972858;28;20219;-78
2022/05/04 10:09:13;;;;;;;12.32;11.40;;;22.10;99.80;;;;;;4974547;28;20204;-77
2022/05/04 10:11:40;;;;;;;13.15;11.73;;;21.60;99.90;;;;;;4977911;28;20207;-78
2022/05/04 10:14:10;;;;;;;9.65;8.85;;;21.00;99.90;;;;;;4979967;28;20177;-77
2022/05/04 10:17:14;;;;;;;7.13;6.32;;;20.70;99.90;;;;;;4990769;28;20223;-77
2022/05/04 10:19:59;;;;;;;6.97;6.38;;;20.20;99.90;;;;;;4973794;28;20207;-77
2022/05/04 10:22:31;;;;;;;5.70;5.30;;;19.80;99.90;;;;;;4973021;28;20196;-78
2022/05/04 10:25:00;;;;;;;7.87;7.20;;;19.60;99.90;;;;;;4980959;28;20204;-78
2022/05/04 10:27:28;;;;;;;7.27;6.60;;;19.50;99.90;;;;;;4979140;28;20209;-78
2022/05/04 10:32:47;;;;;;;31.30;29.60;;;18.90;99.90;;;;;;4974895;28;20271;-78
2022/05/04 10:35:33;;;;;;;9.63;9.07;;;18.60;99.90;;;;;;4973827;28;20575;-78
2022/05/04 10:37:59;;;;;;;6.47;6.03;;;18.50;99.90;;;;;;4979996;28;20196;-77
2022/05/04 10:40:26;;;;;;;8.00;7.50;;;18.20;99.90;;;;;;4979290;28;20181;-76
2022/05/04 10:42:57;;;;;;;12.27;11.33;;;18.00;99.90;;;;;;4975782;28;20200;-78
2022/05/04 10:45:30;;;;;;;6.47;6.07;;;18.00;99.90;;;;;;4973514;28;20212;-78
2022/05/04 10:48:21;;;;;;;6.93;6.20;;;18.00;99.90;;;;;;4974210;28;20243;-77
2022/05/04 10:50:57;;;;;;;6.70;6.20;;;18.10;99.90;;;;;;4973312;28;20204;-78
2022/05/04 10:53:27;;;;;;;8.23;7.73;;;18.40;99.90;;;;;;4974718;28;20183;-78
2022/05/04 10:56:05;;;;;;;10.53;9.83;;;18.60;99.90;;;;;;4975037;28;20193;-77
2022/05/04 10:58:45;;;;;;;9.37;8.57;;;18.70;99.90;;;;;;4972740;28;20200;-77
2022/05/04 11:01:22;;;;;;;11.13;10.10;;;19.00;99.90;;;;;;4973284;28;20552;-78
2022/05/04 11:03:54;;;;;;;14.20;13.33;;;19.40;99.90;;;;;;4974862;28;20192;-78
2022/05/04 11:06:24;;;;;;;23.57;22.30;;;19.80;99.90;;;;;;4977741;28;20356;-77
2022/05/04 11:08:50;;;;;;;19.50;18.30;;;20.00;99.90;;;;;;4976142;28;20185;-78
2022/05/04 11:11:18;;;;;;;21.57;20.30;;;20.30;99.90;;;;;;4964595;28;20244;-78
2022/05/04 11:13:44;;;;;;;15.57;14.57;;;20.60;99.90;;;;;;4976319;28;20888;-77
2022/05/04 11:16:10;;;;;;;15.00;14.02;;;20.90;99.90;;;;;;4991597;28;20251;-77
2022/05/04 11:18:36;;;;;;;7.82;7.10;;;22.00;99.90;;;;;;4995482;28;20188;-77
2022/05/04 11:21:05;;;;;;;8.35;7.75;;;23.50;99.90;;;;;;4996837;28;20184;-78
2022/05/04 11:23:31;;;;;;;9.38;8.80;;;25.70;99.70;;;;;;4996797;28;20181;-75
2022/05/04 11:25:57;;;;;;;6.32;6.03;;;27.20;92.40;;;;;;4996873;28;20200;-77
2022/05/04 11:28:23;;;;;;;4.75;4.45;;;27.70;87.90;;;;;;4996605;28;20183;-77
2022/05/04 11:30:52;;;;;;;4.93;4.63;;;27.80;75.70;;;;;;4996067;28;20731;-77
2022/05/04 11:33:18;;;;;;;5.15;4.82;;;27.90;74.10;;;;;;4996930;28;20275;-77
2022/05/04 11:35:56;;;;;;;6.70;6.30;;;27.20;69.10;;;;;;4995972;28;20208;-77
2022/05/04 11:38:23;;;;;;;4.95;4.68;;;26.30;72.40;;;;;;4995792;28;20180;-77
2022/05/04 11:40:50;;;;;;;5.07;4.47;;;25.90;72.50;;;;;;4996786;28;20220;-77
2022/05/04 11:43:30;;;;;;;5.45;5.15;;;25.70;72.20;;;;;;4997128;28;20192;-75
2022/05/04 11:45:56;;;;;;;3.95;3.75;;;25.90;70.60;;;;;;4996629;28;20208;-77
2022/05/04 11:48:25;;;;;;;5.20;4.97;;;26.40;68.60;;;;;;4994619;28;20184;-77
2022/05/04 11:50:51;;;;;;;4.88;4.43;;;26.70;69.50;;;;;;4993363;28;20187;-77
2022/05/04 11:53:16;;;;;;;6.28;5.80;;;27.50;65.50;;;;;;4996026;28;20184;-77
2022/05/04 11:55:42;;;;;;;7.32;6.82;;;27.60;62.70;;;;;;5012965;28;20227;-76
2022/05/04 11:58:10;;;;;;;8.98;8.38;;;27.80;61.40;;;;;;4995070;28;20184;-76
2022/05/04 12:00:42;;;;;;;9.32;8.60;;;27.00;61.90;;;;;;4994731;28;20376;-77
2022/05/04 12:03:09;;;;;;;9.15;8.55;;;26.40;65.00;;;;;;4995960;28;20664;-76
2022/05/04 12:05:37;;;;;;;9.23;8.63;;;25.80;63.80;;;;;;4997280;28;20220;-78
2022/05/04 12:08:06;;;;;;;7.65;7.15;;;25.10;63.40;;;;;;4996229;28;20274;-78
2022/05/04 12:10:33;;;;;;;5.63;5.22;;;24.80;64.70;;;;;;4995654;28;20295;-77
2022/05/04 12:13:01;;;;;;;5.45;5.05;;;24.70;65.00;;;;;;4996695;28;20271;-78
2022/05/04 12:15:28;;;;;;;7.05;6.65;;;24.70;67.30;;;;;;4996785;28;20200;-77
2022/05/04 12:17:58;;;;;;;7.68;6.97;;;24.50;69.50;;;;;;4999412;28;20558;-76
2022/05/04 12:20:25;;;;;;;6.85;6.45;;;24.10;69.20;;;;;;5002887;28;20247;-76
2022/05/04 12:22:50;;;;;;;7.30;6.80;;;23.60;71.30;;;;;;4995007;28;20184;-78
2022/05/04 12:25:19;;;;;;;5.80;5.38;;;23.50;69.70;;;;;;4994584;28;20247;-78
2022/05/04 12:27:46;;;;;;;5.40;5.00;;;23.40;74.20;;;;;;4994049;28;20303;-77
2022/05/04 12:33:09;;;;;;;6.50;5.78;;;23.20;73.00;;;;;;4998529;28;20814;-77
2022/05/04 12:35:37;;;;;;;6.72;6.05;;;23.10;74.90;;;;;;4995189;28;20207;-77
2022/05/04 12:38:03;;;;;;;5.60;5.28;;;23.00;72.20;;;;;;4993430;28;20299;-78
2022/05/04 12:40:31;;;;;;;10.20;9.63;;;23.10;72.90;;;;;;4994599;28;20177;-78
2022/05/04 12:43:02;;;;;;;9.07;8.52;;;23.30;76.10;;;;;;4992570;28;20181;-73
2022/05/04 12:45:28;;;;;;;8.15;7.43;;;23.10;73.90;;;;;;4962053;28;20206;-73
2022/05/04 12:47:56;;;;;;;8.52;7.80;;;23.20;75.80;;;;;;4953870;28;20658;-74
2022/05/04 12:50:23;;;;;;;8.05;7.47;;;23.30;74.30;;;;;;4960786;28;20565;-73
2022/05/04 12:52:50;;;;;;;8.50;6.93;;;23.70;74.20;;;;;;4972134;28;20185;-73
2022/05/04 12:55:16;;;;;;;5.95;5.65;;;23.90;72.50;;;;;;4973137;28;20655;-73
2022/05/04 12:57:42;;;;;;;5.70;5.40;;;24.50;72.90;;;;;;4971832;28;20669;-73
2022/05/04 13:00:13;;;;;;;6.40;5.97;;;25.30;72.00;;;;;;4970699;28;20609;-73
2022/05/04 13:02:42;;;;;;;5.88;5.57;;;25.50;70.20;;;;;;4972102;28;20748;-74
2022/05/04 13:05:09;;;;;;;7.72;7.22;;;26.00;70.00;;;;;;4972010;28;20655;-73
2022/05/04 13:07:36;;;;;;;7.28;6.78;;;26.10;71.60;;;;;;4972978;28;20653;-74
2022/05/04 13:10:05;;;;;;;6.97;6.47;;;26.50;67.50;;;;;;4972239;28;20209;-73
2022/05/04 13:12:31;;;;;;;6.18;5.80;;;27.50;65.90;;;;;;4971944;28;20181;-73
2022/05/04 13:14:57;;;;;;;7.75;7.20;;;28.50;63.90;;;;;;4972914;28;20192;-73
2022/05/04 13:17:23;;;;;;;6.07;5.68;;;28.80;60.90;;;;;;4972549;28;20225;-73
2022/05/04 13:19:48;;;;;;;6.40;5.78;;;29.80;60.30;;;;;;4971692;28;20181;-73
2022/05/04 13:22:14;;;;;;;5.20;4.90;;;29.30;56.80;;;;;;4972888;28;20188;-73
2022/05/04 13:24:40;;;;;;;5.63;5.22;;;29.70;55.60;;;;;;4971599;28;20184;-73
2022/05/04 13:27:06;;;;;;;5.43;5.13;;;30.00;52.00;;;;;;4971221;28;20216;-73
2022/05/04 13:29:32;;;;;;;5.25;4.95;;;30.10;54.50;;;;;;4972949;28;20558;-74
2022/05/04 13:31:59;;;;;;;5.53;5.00;;;29.80;54.60;;;;;;4973160;28;20250;-74
2022/05/04 13:34:25;;;;;;;5.30;4.88;;;28.80;55.30;;;;;;4983448;28;20189;-73
2022/05/04 13:36:50;;;;;;;5.00;4.60;;;28.10;57.80;;;;;;4980650;28;20223;-74
2022/05/04 13:39:16;;;;;;;5.07;4.85;;;28.70;57.50;;;;;;4973948;28;20426;-74
2022/05/04 13:41:42;;;;;;;8.20;6.20;;;29.50;56.00;;;;;;4972323;28;20227;-74
2022/05/04 13:44:08;;;;;;;6.40;5.90;;;31.10;52.00;;;;;;4974016;28;20570;-74
2022/05/04 13:46:34;;;;;;;7.25;6.32;;;30.70;53.20;;;;;;4972618;28;20216;-73
2022/05/04 13:48:59;;;;;;;10.45;9.85;;;30.70;52.80;;;;;;4972565;28;20184;-73
2022/05/04 13:54:12;;;;;;;13.13;12.20;;;30.80;51.50;;;;;;4973165;28;20180;-74
2022/05/04 13:56:37;;;;;;;10.10;9.43;;;29.70;51.90;;;;;;4972637;28;20266;-74
2022/05/04 13:59:04;;;;;;;8.85;8.15;;;27.50;55.50;;;;;;4971213;28;20243;-73
2022/05/04 14:01:30;;;;;;;8.68;7.97;;;25.90;59.10;;;;;;4968410;28;20184;-75
2022/05/04 14:03:55;;;;;;;8.93;8.23;;;24.50;63.10;;;;;;4960444;28;20186;-75
2022/05/04 14:06:22;;;;;;;10.18;9.18;;;23.60;66.70;;;;;;4967719;28;20244;-74
2022/05/04 14:08:49;;;;;;;10.10;9.32;;;22.90;68.60;;;;;;4970558;28;20184;-76
2022/05/04 14:11:18;;;;;;;11.38;10.45;;;22.60;68.50;;;;;;4972302;28;20189;-75
2022/05/04 14:13:45;;;;;;;11.45;10.57;;;22.40;71.30;;;;;;4972155;28;20680;-75
2022/05/04 14:16:13;;;;;;;12.88;12.00;;;22.20;72.20;;;;;;4971949;28;20636;-75
2022/05/04 14:18:39;;;;;;;17.15;16.05;;;22.10;73.80;;;;;;4970630;28;20252;-75
2022/05/04 14:21:05;;;;;;;14.07;12.82;;;22.80;73.60;;;;;;4972097;28;20185;-75
2022/05/04 14:23:31;;;;;;;9.85;9.05;;;23.70;71.60;;;;;;4957503;28;20193;-75
2022/05/04 14:25:57;;;;;;;8.07;7.35;;;23.70;68.60;;;;;;4951205;28;20205;-75
2022/05/04 14:28:28;;;;;;;6.72;6.30;;;23.80;65.70;;;;;;4951254;29;20197;-75
2022/05/04 14:30:56;;;;;;;6.80;6.30;;;24.40;67.10;;;;;;4951147;28;20185;-74
2022/05/04 14:33:22;;;;;;;5.45;5.13;;;25.80;64.00;;;;;;4952050;28;20181;-75
2022/05/04 14:35:48;;;;;;;6.15;5.75;;;25.90;62.60;;;;;;4951552;28;20424;-74
2022/05/04 14:38:13;;;;;;;6.47;6.00;;;26.10;59.50;;;;;;4956109;28;20233;-74
2022/05/04 14:40:39;;;;;;;7.88;7.38;;;26.00;59.60;;;;;;4951431;29;20177;-74
2022/05/04 14:43:05;;;;;;;8.77;7.97;;;26.10;59.20;;;;;;4965227;28;20180;-75
2022/05/04 14:45:31;;;;;;;5.45;5.13;;;26.20;58.40;;;;;;4973749;28;20267;-74
2022/05/04 14:48:00;;;;;;;5.43;5.03;;;26.90;56.70;;;;;;4975630;28;20275;-74
2022/05/04 14:50:25;;;;;;;6.13;5.63;;;27.50;55.20;;;;;;4975615;28;20680;-75
2022/05/04 14:52:52;;;;;;;6.22;5.68;;;27.70;54.90;;;;;;4975568;28;20181;-75
2022/05/04 14:55:17;;;;;;;6.45;5.97;;;28.00;56.10;;;;;;4976021;28;20657;-74
2022/05/04 14:57:43;;;;;;;5.07;4.78;;;28.40;55.90;;;;;;4973727;28;20270;-73
2022/05/04 15:00:10;;;;;;;5.78;5.30;;;28.70;53.70;;;;;;4975650;28;20227;-73
2022/05/04 15:05:01;;;;;;;5.57;4.75;;;28.90;53.60;;;;;;4975415;28;20176;-73
2022/05/04 15:05:22;;;;;;;5.30;4.80;;;29.00;53.00;;;;;;4975509;28;20200;-73
2022/05/04 15:07:50;;;;;;;5.55;5.05;;;28.90;53.40;;;;;;4973888;28;20185;-73
2022/05/04 15:10:17;;;;;;;6.90;6.30;;;28.80;55.70;;;;;;4975835;28;20192;-73
2022/05/04 15:12:43;;;;;;;6.53;5.68;;;28.90;54.90;;;;;;4980207;28;20181;-73
2022/05/04 15:15:09;;;;;;;7.25;6.75;;;29.20;54.80;;;;;;4992245;28;20200;-74
2022/05/04 15:17:34;;;;;;;6.05;5.55;;;29.10;54.90;;;;;;5009470;23;20236;-72
2022/05/04 15:20:00;;;;;;;6.13;5.53;;;28.60;56.90;;;;;;4993141;28;20208;-73
2022/05/04 15:22:26;;;;;;;6.55;6.15;;;27.70;57.40;;;;;;4991818;28;20668;-72
2022/05/04 15:24:52;;;;;;;8.07;7.47;;;25.70;62.10;;;;;;4994273;28;20645;-72
2022/05/04 15:27:19;;;;;;;9.07;8.43;;;24.50;65.60;;;;;;4991150;28;20230;-72
2022/05/04 15:29:45;;;;;;;9.57;8.93;;;23.50;69.00;;;;;;4989227;28;20189;-73
2022/05/04 15:32:10;;;;;;;14.40;13.60;;;22.80;72.10;;;;;;4975503;28;20263;-73
2022/05/04 15:34:36;;;;;;;21.90;20.63;;;22.40;74.40;;;;;;4983236;28;20188;-73
2022/05/04 15:37:03;;;;;;;40.88;38.75;;;22.20;76.60;;;;;;4978531;28;20224;-71
2022/05/04 15:39:32;;;;;;;34.30;32.40;;;22.10;78.10;;;;;;4975417;28;20276;-74
2022/05/04 15:41:58;;;;;;;30.27;28.33;;;22.10;77.30;;;;;;4974755;28;20192;-73
2022/05/04 15:44:24;;;;;;;27.23;25.42;;;22.20;76.70;;;;;;4976050;28;20181;-73
2022/05/04 15:46:50;;;;;;;28.90;27.42;;;23.00;75.50;;;;;;4975573;28;20255;-73
2022/05/04 15:49:16;;;;;;;26.83;25.23;;;23.00;74.80;;;;;;4973506;28;20189;-73
2022/05/04 15:51:41;;;;;;;27.92;26.30;;;22.60;74.90;;;;;;4975048;28;20189;-73
2022/05/04 15:54:08;;;;;;;31.60;29.30;;;22.80;75.60;;;;;;4974681;28;20211;-73
2022/05/04 15:56:37;;;;;;;21.25;19.38;;;24.10;72.80;;;;;;4973637;28;20213;-73
2022/05/04 15:59:05;;;;;;;13.13;11.75;;;24.70;69.60;;;;;;4974495;28;20231;-73
2022/05/04 16:01:31;;;;;;;12.52;11.32;;;24.70;69.40;;;;;;4974984;28;20661;-73
2022/05/04 16:03:57;;;;;;;10.45;9.55;;;24.00;70.50;;;;;;4975059;28;20196;-73
2022/05/04 16:06:24;;;;;;;8.55;7.85;;;22.90;69.30;;;;;;4974827;28;20240;-73
2022/05/04 16:08:50;;;;;;;19.90;18.30;;;22.20;70.40;;;;;;4967305;28;20185;-73